sensor_id;sensor_type;location;lat;lon;timestamp;temperature;humidity
41644;DHT22;44236;48.098;11.582;2023-06-22T00:00:49;24.70;57.30
41644;DHT22;44236;48.098;11.582;2023-06-22T00:03:15;24.60;57.60
41644;DHT22;44236;48.098;11.582;2023-06-22T00:05:41;24.60;57.60
41644;DHT22;44236;48.098;11.582;2023-06-22T00:08:06;24.60;57.60
41644;DHT22;44236;48.098;11.582;2023-06-22T00:10:32;24.50;57.80
41644;DHT22;44236;48.098;11.582;2023-06-22T00:12:58;24.50;57.80
41644;DHT22;44236;48.098;11.582;2023-06-22T00:15:23;24.60;57.80
41644;DHT22;44236;48.098;11.582;2023-06-22T00:17:50;24.60;57.80
41644;DHT22;44236;48.098;11.582;2023-06-22T00:20:16;24.60;58.40
41644;DHT22;44236;48.098;11.582;2023-06-22T00:22:43;24.50;58.10
41644;DHT22;44236;48.098;11.582;2023-06-22T00:25:09;24.40;58.30
41644;DHT22;44236;48.098;11.582;2023-06-22T00:27:36;24.40;58.30
41644;DHT22;44236;48.098;11.582;2023-06-22T00:30:02;24.40;58.40
41644;DHT22;44236;48.098;11.582;2023-06-22T00:32:28;24.40;58.40
41644;DHT22;44236;48.098;11.582;2023-06-22T00:34:54;24.40;58.30
41644;DHT22;44236;48.098;11.582;2023-06-22T00:37:19;24.40;58.40
41644;DHT22;44236;48.098;11.582;2023-06-22T00:39:48;24.40;58.40
41644;DHT22;44236;48.098;11.582;2023-06-22T00:42:14;24.40;58.40
41644;DHT22;44236;48.098;11.582;2023-06-22T00:44:39;24.30;58.40
41644;DHT22;44236;48.098;11.582;2023-06-22T00:47:06;24.30;58.60
41644;DHT22;44236;48.098;11.582;2023-06-22T00:49:32;24.30;58.50
41644;DHT22;44236;48.098;11.582;2023-06-22T00:51:58;24.40;58.40
41644;DHT22;44236;48.098;11.582;2023-06-22T00:54:24;24.40;58.30
41644;DHT22;44236;48.098;11.582;2023-06-22T00:56:53;24.40;58.20
41644;DHT22;44236;48.098;11.582;2023-06-22T00:59:22;24.40;58.30
41644;DHT22;44236;48.098;11.582;2023-06-22T01:01:48;24.30;58.40
41644;DHT22;44236;48.098;11.582;2023-06-22T01:04:14;24.30;58.40
41644;DHT22;44236;48.098;11.582;2023-06-22T01:06:45;24.30;58.20
41644;DHT22;44236;48.098;11.582;2023-06-22T01:09:28;24.40;58.10
41644;DHT22;44236;48.098;11.582;2023-06-22T01:12:03;24.40;58.00
41644;DHT22;44236;48.098;11.582;2023-06-22T01:17:05;24.30;58.30
41644;DHT22;44236;48.098;11.582;2023-06-22T01:21:58;24.30;58.20
41644;DHT22;44236;48.098;11.582;2023-06-22T01:27:26;24.20;58.40
41644;DHT22;44236;48.098;11.582;2023-06-22T01:29:55;24.30;58.30
41644;DHT22;44236;48.098;11.582;2023-06-22T01:32:31;24.20;58.30
41644;DHT22;44236;48.098;11.582;2023-06-22T01:35:00;24.20;58.20
41644;DHT22;44236;48.098;11.582;2023-06-22T01:37:29;24.20;58.70
41644;DHT22;44236;48.098;11.582;2023-06-22T01:39:58;24.20;58.40
41644;DHT22;44236;48.098;11.582;2023-06-22T01:42:24;24.20;58.40
41644;DHT22;44236;48.098;11.582;2023-06-22T01:44:52;24.10;58.40
41644;DHT22;44236;48.098;11.582;2023-06-22T01:47:20;24.10;58.60
41644;DHT22;44236;48.098;11.582;2023-06-22T01:49:46;24.10;58.70
41644;DHT22;44236;48.098;11.582;2023-06-22T01:52:12;24.00;58.60
41644;DHT22;44236;48.098;11.582;2023-06-22T01:54:39;24.10;58.60
41644;DHT22;44236;48.098;11.582;2023-06-22T01:57:05;24.00;58.50
41644;DHT22;44236;48.098;11.582;2023-06-22T01:59:36;24.10;58.50
41644;DHT22;44236;48.098;11.582;2023-06-22T02:02:07;24.00;58.40
41644;DHT22;44236;48.098;11.582;2023-06-22T02:04:48;24.10;58.40
41644;DHT22;44236;48.098;11.582;2023-06-22T02:07:17;24.10;58.40
41644;DHT22;44236;48.098;11.582;2023-06-22T02:09:45;24.10;58.30
41644;DHT22;44236;48.098;11.582;2023-06-22T02:12:13;24.10;58.30
41644;DHT22;44236;48.098;11.582;2023-06-22T02:14:41;24.00;58.40
41644;DHT22;44236;48.098;11.582;2023-06-22T02:17:09;23.90;58.70
41644;DHT22;44236;48.098;11.582;2023-06-22T02:19:38;23.90;58.90
41644;DHT22;44236;48.098;11.582;2023-06-22T02:22:04;23.80;59.20
41644;DHT22;44236;48.098;11.582;2023-06-22T02:24:31;23.70;59.40
41644;DHT22;44236;48.098;11.582;2023-06-22T02:27:01;23.70;59.70
41644;DHT22;44236;48.098;11.582;2023-06-22T02:29:27;23.70;59.60
41644;DHT22;44236;48.098;11.582;2023-06-22T02:31:54;23.70;59.50
41644;DHT22;44236;48.098;11.582;2023-06-22T02:34:20;23.80;59.40
41644;DHT22;44236;48.098;11.582;2023-06-22T02:36:47;23.80;59.30
41644;DHT22;44236;48.098;11.582;2023-06-22T02:39:20;23.90;59.10
41644;DHT22;44236;48.098;11.582;2023-06-22T02:41:45;24.00;58.90
41644;DHT22;44236;48.098;11.582;2023-06-22T02:44:11;23.90;59.00
41644;DHT22;44236;48.098;11.582;2023-06-22T02:46:37;23.90;59.00
41644;DHT22;44236;48.098;11.582;2023-06-22T02:49:03;24.00;59.00
41644;DHT22;44236;48.098;11.582;2023-06-22T02:51:30;24.00;59.00
41644;DHT22;44236;48.098;11.582;2023-06-22T02:53:57;23.90;59.10
41644;DHT22;44236;48.098;11.582;2023-06-22T02:56:23;23.90;59.40
41644;DHT22;44236;48.098;11.582;2023-06-22T02:58:51;23.80;59.80
41644;DHT22;44236;48.098;11.582;2023-06-22T03:01:16;23.70;60.30
41644;DHT22;44236;48.098;11.582;2023-06-22T03:03:42;23.60;60.60
41644;DHT22;44236;48.098;11.582;2023-06-22T03:06:07;23.50;60.90
41644;DHT22;44236;48.098;11.582;2023-06-22T03:08:33;23.50;61.10
41644;DHT22;44236;48.098;11.582;2023-06-22T03:10:59;23.50;61.00
41644;DHT22;44236;48.098;11.582;2023-06-22T03:13:27;23.60;60.70
41644;DHT22;44236;48.098;11.582;2023-06-22T03:15:52;23.60;60.40
41644;DHT22;44236;48.098;11.582;2023-06-22T03:18:18;23.70;60.10
41644;DHT22;44236;48.098;11.582;2023-06-22T03:20:43;23.70;59.80
41644;DHT22;44236;48.098;11.582;2023-06-22T03:23:09;23.80;59.60
41644;DHT22;44236;48.098;11.582;2023-06-22T03:25:35;23.80;59.40
41644;DHT22;44236;48.098;11.582;2023-06-22T03:28:01;23.80;59.30
41644;DHT22;44236;48.098;11.582;2023-06-22T03:30:26;23.90;59.30
41644;DHT22;44236;48.098;11.582;2023-06-22T03:32:52;23.80;59.20
41644;DHT22;44236;48.098;11.582;2023-06-22T03:35:17;23.80;59.30
41644;DHT22;44236;48.098;11.582;2023-06-22T03:37:43;23.80;59.30
41644;DHT22;44236;48.098;11.582;2023-06-22T03:40:09;23.80;59.40
41644;DHT22;44236;48.098;11.582;2023-06-22T03:42:35;23.80;59.40
41644;DHT22;44236;48.098;11.582;2023-06-22T03:45:04;23.80;59.40
41644;DHT22;44236;48.098;11.582;2023-06-22T03:47:29;23.80;59.40
41644;DHT22;44236;48.098;11.582;2023-06-22T03:49:55;23.70;59.60
41644;DHT22;44236;48.098;11.582;2023-06-22T03:52:21;23.70;59.60
41644;DHT22;44236;48.098;11.582;2023-06-22T03:54:48;23.70;59.60
41644;DHT22;44236;48.098;11.582;2023-06-22T03:57:13;23.70;59.70
41644;DHT22;44236;48.098;11.582;2023-06-22T03:59:39;23.70;59.80
41644;DHT22;44236;48.098;11.582;2023-06-22T04:02:05;23.60;60.20
41644;DHT22;44236;48.098;11.582;2023-06-22T04:04:30;23.50;61.10
41644;DHT22;44236;48.098;11.582;2023-06-22T04:06:56;23.50;61.00
41644;DHT22;44236;48.098;11.582;2023-06-22T04:09:21;23.40;61.20
41644;DHT22;44236;48.098;11.582;2023-06-22T04:11:47;23.40;61.40
41644;DHT22;44236;48.098;11.582;2023-06-22T04:14:13;23.40;61.50
41644;DHT22;44236;48.098;11.582;2023-06-22T04:16:38;23.40;61.60
41644;DHT22;44236;48.098;11.582;2023-06-22T04:19:04;23.40;61.50
41644;DHT22;44236;48.098;11.582;2023-06-22T04:21:30;23.40;61.50
41644;DHT22;44236;48.098;11.582;2023-06-22T04:23:55;23.50;61.60
41644;DHT22;44236;48.098;11.582;2023-06-22T04:26:21;23.50;61.50
41644;DHT22;44236;48.098;11.582;2023-06-22T04:28:47;23.50;61.70
41644;DHT22;44236;48.098;11.582;2023-06-22T04:31:17;23.50;61.90
41644;DHT22;44236;48.098;11.582;2023-06-22T04:33:44;23.40;62.10
41644;DHT22;44236;48.098;11.582;2023-06-22T04:36:10;23.30;62.60
41644;DHT22;44236;48.098;11.582;2023-06-22T04:38:39;23.30;62.90
41644;DHT22;44236;48.098;11.582;2023-06-22T04:41:04;23.30;63.00
41644;DHT22;44236;48.098;11.582;2023-06-22T04:43:30;23.40;62.90
41644;DHT22;44236;48.098;11.582;2023-06-22T04:45:57;23.30;63.30
41644;DHT22;44236;48.098;11.582;2023-06-22T04:48:31;23.20;63.80
41644;DHT22;44236;48.098;11.582;2023-06-22T04:51:01;23.10;64.30
41644;DHT22;44236;48.098;11.582;2023-06-22T04:53:29;23.10;64.80
41644;DHT22;44236;48.098;11.582;2023-06-22T04:55:55;22.90;65.40
41644;DHT22;44236;48.098;11.582;2023-06-22T04:58:20;22.90;66.20
41644;DHT22;44236;48.098;11.582;2023-06-22T05:00:47;22.70;66.90
41644;DHT22;44236;48.098;11.582;2023-06-22T05:03:12;22.70;67.10
41644;DHT22;44236;48.098;11.582;2023-06-22T05:05:38;22.70;67.40
41644;DHT22;44236;48.098;11.582;2023-06-22T05:08:04;22.80;67.30
41644;DHT22;44236;48.098;11.582;2023-06-22T05:10:32;22.80;67.20
41644;DHT22;44236;48.098;11.582;2023-06-22T05:12:58;22.80;67.50
41644;DHT22;44236;48.098;11.582;2023-06-22T05:15:24;22.80;67.70
41644;DHT22;44236;48.098;11.582;2023-06-22T05:17:53;22.80;67.90
41644;DHT22;44236;48.098;11.582;2023-06-22T05:20:19;22.70;68.10
41644;DHT22;44236;48.098;11.582;2023-06-22T05:22:45;22.80;67.80
41644;DHT22;44236;48.098;11.582;2023-06-22T05:25:11;22.80;67.80
41644;DHT22;44236;48.098;11.582;2023-06-22T05:27:37;22.80;67.70
41644;DHT22;44236;48.098;11.582;2023-06-22T05:30:07;22.90;68.00
41644;DHT22;44236;48.098;11.582;2023-06-22T05:32:33;22.90;67.80
41644;DHT22;44236;48.098;11.582;2023-06-22T05:34:59;23.00;67.50
41644;DHT22;44236;48.098;11.582;2023-06-22T05:37:25;23.10;67.50
41644;DHT22;44236;48.098;11.582;2023-06-22T05:39:51;23.00;66.90
41644;DHT22;44236;48.098;11.582;2023-06-22T05:42:17;23.20;66.90
41644;DHT22;44236;48.098;11.582;2023-06-22T05:44:42;23.30;64.90
41644;DHT22;44236;48.098;11.582;2023-06-22T05:47:08;23.40;64.70
41644;DHT22;44236;48.098;11.582;2023-06-22T05:49:33;23.50;62.80
41644;DHT22;44236;48.098;11.582;2023-06-22T05:51:59;23.60;62.30
41644;DHT22;44236;48.098;11.582;2023-06-22T05:54:27;23.60;62.20
41644;DHT22;44236;48.098;11.582;2023-06-22T05:56:52;23.70;61.80
41644;DHT22;44236;48.098;11.582;2023-06-22T05:59:18;23.70;61.70
41644;DHT22;44236;48.098;11.582;2023-06-22T06:01:44;23.80;61.40
41644;DHT22;44236;48.098;11.582;2023-06-22T06:04:09;23.80;61.20
41644;DHT22;44236;48.098;11.582;2023-06-22T06:06:35;23.90;60.90
41644;DHT22;44236;48.098;11.582;2023-06-22T06:09:05;23.90;60.80
41644;DHT22;44236;48.098;11.582;2023-06-22T06:11:31;23.90;60.30
41644;DHT22;44236;48.098;11.582;2023-06-22T06:13:56;24.00;59.90
41644;DHT22;44236;48.098;11.582;2023-06-22T06:16:22;24.00;59.40
41644;DHT22;44236;48.098;11.582;2023-06-22T06:18:48;24.00;59.40
41644;DHT22;44236;48.098;11.582;2023-06-22T06:21:16;24.10;59.20
41644;DHT22;44236;48.098;11.582;2023-06-22T06:23:41;24.10;58.80
41644;DHT22;44236;48.098;11.582;2023-06-22T06:26:07;24.10;58.80
41644;DHT22;44236;48.098;11.582;2023-06-22T06:28:34;24.10;58.40
41644;DHT22;44236;48.098;11.582;2023-06-22T06:30:59;24.20;58.40
41644;DHT22;44236;48.098;11.582;2023-06-22T06:33:25;24.20;58.30
41644;DHT22;44236;48.098;11.582;2023-06-22T06:35:50;24.20;58.50
41644;DHT22;44236;48.098;11.582;2023-06-22T06:38:16;24.20;58.40
41644;DHT22;44236;48.098;11.582;2023-06-22T06:40:42;24.20;58.50
41644;DHT22;44236;48.098;11.582;2023-06-22T06:43:07;24.30;58.30
41644;DHT22;44236;48.098;11.582;2023-06-22T06:45:33;24.30;58.30
41644;DHT22;44236;48.098;11.582;2023-06-22T06:48:00;24.30;58.20
41644;DHT22;44236;48.098;11.582;2023-06-22T06:50:25;24.30;58.30
41644;DHT22;44236;48.098;11.582;2023-06-22T06:52:51;24.40;58.30
41644;DHT22;44236;48.098;11.582;2023-06-22T06:55:17;24.40;58.40
41644;DHT22;44236;48.098;11.582;2023-06-22T06:57:44;24.40;58.30
41644;DHT22;44236;48.098;11.582;2023-06-22T07:00:14;24.40;58.30
41644;DHT22;44236;48.098;11.582;2023-06-22T07:02:41;24.40;58.10
41644;DHT22;44236;48.098;11.582;2023-06-22T07:05:08;24.50;58.30
41644;DHT22;44236;48.098;11.582;2023-06-22T07:07:34;24.50;58.40
41644;DHT22;44236;48.098;11.582;2023-06-22T07:10:00;24.50;58.00
41644;DHT22;44236;48.098;11.582;2023-06-22T07:12:25;24.50;58.00
41644;DHT22;44236;48.098;11.582;2023-06-22T07:14:52;24.50;58.20
41644;DHT22;44236;48.098;11.582;2023-06-22T07:17:18;24.50;58.00
41644;DHT22;44236;48.098;11.582;2023-06-22T07:19:43;24.50;57.70
41644;DHT22;44236;48.098;11.582;2023-06-22T07:22:09;24.60;57.90
41644;DHT22;44236;48.098;11.582;2023-06-22T07:24:35;24.60;57.80
41644;DHT22;44236;48.098;11.582;2023-06-22T07:27:00;24.60;57.80
41644;DHT22;44236;48.098;11.582;2023-06-22T07:29:27;24.60;57.70
41644;DHT22;44236;48.098;11.582;2023-06-22T07:31:53;24.60;57.80
41644;DHT22;44236;48.098;11.582;2023-06-22T07:34:19;24.60;57.90
41644;DHT22;44236;48.098;11.582;2023-06-22T07:36:45;24.60;57.60
41644;DHT22;44236;48.098;11.582;2023-06-22T07:39:11;24.60;57.60
41644;DHT22;44236;48.098;11.582;2023-06-22T07:41:39;24.70;58.00
41644;DHT22;44236;48.098;11.582;2023-06-22T07:44:04;24.70;57.80
41644;DHT22;44236;48.098;11.582;2023-06-22T07:46:31;24.70;58.10
41644;DHT22;44236;48.098;11.582;2023-06-22T07:48:57;24.70;58.20
41644;DHT22;44236;48.098;11.582;2023-06-22T07:51:23;24.70;57.90
41644;DHT22;44236;48.098;11.582;2023-06-22T07:53:49;24.80;58.00
41644;DHT22;44236;48.098;11.582;2023-06-22T07:56:15;24.80;58.20
41644;DHT22;44236;48.098;11.582;2023-06-22T07:58:45;24.80;58.10
41644;DHT22;44236;48.098;11.582;2023-06-22T08:01:12;24.80;58.10
41644;DHT22;44236;48.098;11.582;2023-06-22T08:03:37;24.80;58.00
41644;DHT22;44236;48.098;11.582;2023-06-22T08:06:04;24.80;58.20
41644;DHT22;44236;48.098;11.582;2023-06-22T08:08:31;24.80;58.00
41644;DHT22;44236;48.098;11.582;2023-06-22T08:10:57;24.80;57.70
41644;DHT22;44236;48.098;11.582;2023-06-22T08:13:22;24.80;57.90
41644;DHT22;44236;48.098;11.582;2023-06-22T08:15:48;24.90;58.00
41644;DHT22;44236;48.098;11.582;2023-06-22T08:18:14;24.90;58.00
41644;DHT22;44236;48.098;11.582;2023-06-22T08:20:40;24.90;58.30
41644;DHT22;44236;48.098;11.582;2023-06-22T08:23:06;24.90;58.10
41644;DHT22;44236;48.098;11.582;2023-06-22T08:25:33;24.90;58.30
41644;DHT22;44236;48.098;11.582;2023-06-22T08:27:59;24.90;58.20
41644;DHT22;44236;48.098;11.582;2023-06-22T08:30:25;24.90;58.30
41644;DHT22;44236;48.098;11.582;2023-06-22T08:32:51;25.00;58.40
41644;DHT22;44236;48.098;11.582;2023-06-22T08:35:17;25.00;58.30
41644;DHT22;44236;48.098;11.582;2023-06-22T08:37:42;25.00;58.40
41644;DHT22;44236;48.098;11.582;2023-06-22T08:40:09;25.00;58.40
41644;DHT22;44236;48.098;11.582;2023-06-22T08:42:36;25.00;58.60
41644;DHT22;44236;48.098;11.582;2023-06-22T08:45:01;25.00;58.40
41644;DHT22;44236;48.098;11.582;2023-06-22T08:47:28;25.00;58.50
41644;DHT22;44236;48.098;11.582;2023-06-22T08:49:53;25.00;58.40
41644;DHT22;44236;48.098;11.582;2023-06-22T08:52:20;25.00;58.60
41644;DHT22;44236;48.098;11.582;2023-06-22T08:54:46;25.00;58.60
41644;DHT22;44236;48.098;11.582;2023-06-22T08:57:12;25.00;58.40
41644;DHT22;44236;48.098;11.582;2023-06-22T08:59:37;25.00;57.90
41644;DHT22;44236;48.098;11.582;2023-06-22T09:02:03;25.10;58.30
41644;DHT22;44236;48.098;11.582;2023-06-22T09:04:29;25.00;58.60
41644;DHT22;44236;48.098;11.582;2023-06-22T09:06:54;25.10;58.80
41644;DHT22;44236;48.098;11.582;2023-06-22T09:09:21;25.10;58.80
41644;DHT22;44236;48.098;11.582;2023-06-22T09:11:47;25.10;58.40
41644;DHT22;44236;48.098;11.582;2023-06-22T09:14:13;25.10;58.60
41644;DHT22;44236;48.098;11.582;2023-06-22T09:16:38;25.10;58.30
41644;DHT22;44236;48.098;11.582;2023-06-22T09:19:04;25.20;58.70
41644;DHT22;44236;48.098;11.582;2023-06-22T09:21:30;25.10;58.30
41644;DHT22;44236;48.098;11.582;2023-06-22T09:23:56;25.20;58.40
41644;DHT22;44236;48.098;11.582;2023-06-22T09:26:22;25.20;58.60
41644;DHT22;44236;48.098;11.582;2023-06-22T09:28:49;25.20;58.70
41644;DHT22;44236;48.098;11.582;2023-06-22T09:31:14;25.20;58.60
41644;DHT22;44236;48.098;11.582;2023-06-22T09:33:41;25.20;58.00
41644;DHT22;44236;48.098;11.582;2023-06-22T09:36:07;25.20;58.50
41644;DHT22;44236;48.098;11.582;2023-06-22T09:38:37;25.20;58.50
41644;DHT22;44236;48.098;11.582;2023-06-22T09:41:03;25.20;58.10
41644;DHT22;44236;48.098;11.582;2023-06-22T09:43:29;25.20;58.30
41644;DHT22;44236;48.098;11.582;2023-06-22T09:45:55;25.20;58.10
41644;DHT22;44236;48.098;11.582;2023-06-22T09:48:20;25.30;58.20
41644;DHT22;44236;48.098;11.582;2023-06-22T09:50:46;25.30;58.50
41644;DHT22;44236;48.098;11.582;2023-06-22T09:53:12;25.30;58.30
41644;DHT22;44236;48.098;11.582;2023-06-22T09:55:37;25.30;58.60
41644;DHT22;44236;48.098;11.582;2023-06-22T09:58:03;25.30;58.40
41644;DHT22;44236;48.098;11.582;2023-06-22T10:00:28;25.30;58.20
41644;DHT22;44236;48.098;11.582;2023-06-22T10:02:54;25.30;58.40
41644;DHT22;44236;48.098;11.582;2023-06-22T10:05:21;25.30;58.50
41644;DHT22;44236;48.098;11.582;2023-06-22T10:07:47;25.30;58.50
41644;DHT22;44236;48.098;11.582;2023-06-22T10:10:13;25.30;58.20
41644;DHT22;44236;48.098;11.582;2023-06-22T10:12:45;25.40;58.10
41644;DHT22;44236;48.098;11.582;2023-06-22T10:15:11;25.40;58.00
41644;DHT22;44236;48.098;11.582;2023-06-22T10:17:37;25.40;58.70
41644;DHT22;44236;48.098;11.582;2023-06-22T10:20:02;25.40;58.40
41644;DHT22;44236;48.098;11.582;2023-06-22T10:22:41;25.40;58.40
41644;DHT22;44236;48.098;11.582;2023-06-22T10:25:08;25.40;57.90
41644;DHT22;44236;48.098;11.582;2023-06-22T10:27:33;25.40;58.20
41644;DHT22;44236;48.098;11.582;2023-06-22T10:29:59;25.40;58.50
41644;DHT22;44236;48.098;11.582;2023-06-22T10:32:25;25.50;58.50
41644;DHT22;44236;48.098;11.582;2023-06-22T10:34:54;25.50;58.50
41644;DHT22;44236;48.098;11.582;2023-06-22T10:37:20;25.50;58.60
41644;DHT22;44236;48.098;11.582;2023-06-22T10:39:45;25.50;58.20
41644;DHT22;44236;48.098;11.582;2023-06-22T10:42:12;25.50;58.50
41644;DHT22;44236;48.098;11.582;2023-06-22T10:44:38;25.50;58.30
41644;DHT22;44236;48.098;11.582;2023-06-22T10:47:07;25.50;58.50
41644;DHT22;44236;48.098;11.582;2023-06-22T10:49:36;25.50;58.60
41644;DHT22;44236;48.098;11.582;2023-06-22T10:52:03;25.50;58.30
41644;DHT22;44236;48.098;11.582;2023-06-22T10:54:29;25.50;58.50
41644;DHT22;44236;48.098;11.582;2023-06-22T10:56:55;25.60;58.60
41644;DHT22;44236;48.098;11.582;2023-06-22T10:59:21;25.60;58.30
41644;DHT22;44236;48.098;11.582;2023-06-22T11:01:49;25.60;58.10
41644;DHT22;44236;48.098;11.582;2023-06-22T11:04:14;25.60;58.50
41644;DHT22;44236;48.098;11.582;2023-06-22T11:06:40;25.60;58.30
41644;DHT22;44236;48.098;11.582;2023-06-22T11:09:05;25.60;58.60
41644;DHT22;44236;48.098;11.582;2023-06-22T11:11:32;25.60;58.20
41644;DHT22;44236;48.098;11.582;2023-06-22T11:13:57;25.70;58.50
41644;DHT22;44236;48.098;11.582;2023-06-22T11:16:23;25.70;58.50
41644;DHT22;44236;48.098;11.582;2023-06-22T11:18:49;25.70;58.50
41644;DHT22;44236;48.098;11.582;2023-06-22T11:21:14;25.70;58.60
41644;DHT22;44236;48.098;11.582;2023-06-22T11:23:42;25.70;58.60
41644;DHT22;44236;48.098;11.582;2023-06-22T11:26:08;25.70;58.60
41644;DHT22;44236;48.098;11.582;2023-06-22T11:28:33;25.70;58.40
41644;DHT22;44236;48.098;11.582;2023-06-22T11:30:59;25.70;58.60
41644;DHT22;44236;48.098;11.582;2023-06-22T11:33:25;25.70;58.70
41644;DHT22;44236;48.098;11.582;2023-06-22T11:35:51;25.70;58.70
41644;DHT22;44236;48.098;11.582;2023-06-22T11:38:17;25.70;58.50
41644;DHT22;44236;48.098;11.582;2023-06-22T11:40:42;25.70;58.40
41644;DHT22;44236;48.098;11.582;2023-06-22T11:43:08;25.80;58.50
41644;DHT22;44236;48.098;11.582;2023-06-22T11:45:34;25.80;58.40
41644;DHT22;44236;48.098;11.582;2023-06-22T11:47:59;25.80;59.10
41644;DHT22;44236;48.098;11.582;2023-06-22T11:50:25;25.80;58.70
41644;DHT22;44236;48.098;11.582;2023-06-22T11:52:50;25.80;58.80
41644;DHT22;44236;48.098;11.582;2023-06-22T11:55:18;25.80;58.80
41644;DHT22;44236;48.098;11.582;2023-06-22T11:57:55;25.80;58.80
41644;DHT22;44236;48.098;11.582;2023-06-22T12:00:21;25.90;59.00
41644;DHT22;44236;48.098;11.582;2023-06-22T12:02:49;25.90;58.70
41644;DHT22;44236;48.098;11.582;2023-06-22T12:05:17;25.90;59.10
41644;DHT22;44236;48.098;11.582;2023-06-22T12:07:43;25.90;58.90
41644;DHT22;44236;48.098;11.582;2023-06-22T12:10:09;25.90;59.10
41644;DHT22;44236;48.098;11.582;2023-06-22T12:12:35;25.90;58.90
41644;DHT22;44236;48.098;11.582;2023-06-22T12:15:00;25.90;59.00
41644;DHT22;44236;48.098;11.582;2023-06-22T12:17:29;25.90;59.10
41644;DHT22;44236;48.098;11.582;2023-06-22T12:19:55;25.90;59.10
41644;DHT22;44236;48.098;11.582;2023-06-22T12:22:20;26.00;59.10
41644;DHT22;44236;48.098;11.582;2023-06-22T12:24:46;26.00;59.00
41644;DHT22;44236;48.098;11.582;2023-06-22T12:27:12;26.00;58.90
41644;DHT22;44236;48.098;11.582;2023-06-22T12:29:37;26.00;59.10
41644;DHT22;44236;48.098;11.582;2023-06-22T12:32:03;26.00;58.90
41644;DHT22;44236;48.098;11.582;2023-06-22T12:34:29;26.00;59.10
41644;DHT22;44236;48.098;11.582;2023-06-22T12:36:55;26.00;59.20
41644;DHT22;44236;48.098;11.582;2023-06-22T12:39:20;26.10;59.30
41644;DHT22;44236;48.098;11.582;2023-06-22T12:41:46;26.00;59.10
41644;DHT22;44236;48.098;11.582;2023-06-22T12:44:11;26.10;59.00
41644;DHT22;44236;48.098;11.582;2023-06-22T12:46:37;26.10;59.10
41644;DHT22;44236;48.098;11.582;2023-06-22T12:49:04;26.10;59.20
41644;DHT22;44236;48.098;11.582;2023-06-22T12:51:30;26.10;59.10
41644;DHT22;44236;48.098;11.582;2023-06-22T12:53:56;26.10;59.10
41644;DHT22;44236;48.098;11.582;2023-06-22T12:56:22;26.10;59.10
41644;DHT22;44236;48.098;11.582;2023-06-22T12:58:48;26.10;59.20
41644;DHT22;44236;48.098;11.582;2023-06-22T13:01:13;26.10;59.30
41644;DHT22;44236;48.098;11.582;2023-06-22T13:03:39;26.20;59.40
41644;DHT22;44236;48.098;11.582;2023-06-22T13:06:05;26.20;59.30
41644;DHT22;44236;48.098;11.582;2023-06-22T13:08:30;26.10;59.20
41644;DHT22;44236;48.098;11.582;2023-06-22T13:10:56;26.10;59.20
41644;DHT22;44236;48.098;11.582;2023-06-22T13:13:25;26.20;59.00
41644;DHT22;44236;48.098;11.582;2023-06-22T13:15:52;26.20;59.20
41644;DHT22;44236;48.098;11.582;2023-06-22T13:18:19;26.20;59.40
41644;DHT22;44236;48.098;11.582;2023-06-22T13:20:45;26.20;59.40
41644;DHT22;44236;48.098;11.582;2023-06-22T13:23:11;26.20;59.30
41644;DHT22;44236;48.098;11.582;2023-06-22T13:25:36;26.20;59.10
41644;DHT22;44236;48.098;11.582;2023-06-22T13:28:02;26.30;59.30
41644;DHT22;44236;48.098;11.582;2023-06-22T13:30:28;26.20;59.10
41644;DHT22;44236;48.098;11.582;2023-06-22T13:32:54;26.30;59.30
41644;DHT22;44236;48.098;11.582;2023-06-22T13:35:19;26.30;59.30
41644;DHT22;44236;48.098;11.582;2023-06-22T13:37:45;26.30;59.20
41644;DHT22;44236;48.098;11.582;2023-06-22T13:40:11;26.30;59.30
41644;DHT22;44236;48.098;11.582;2023-06-22T13:42:36;26.30;59.10
41644;DHT22;44236;48.098;11.582;2023-06-22T13:45:02;26.30;59.70
41644;DHT22;44236;48.098;11.582;2023-06-22T13:47:29;26.30;59.20
41644;DHT22;44236;48.098;11.582;2023-06-22T13:49:55;26.40;59.30
41644;DHT22;44236;48.098;11.582;2023-06-22T13:52:23;26.40;59.10
41644;DHT22;44236;48.098;11.582;2023-06-22T13:54:48;26.40;59.00
41644;DHT22;44236;48.098;11.582;2023-06-22T13:57:14;26.50;58.70
41644;DHT22;44236;48.098;11.582;2023-06-22T13:59:40;26.50;58.80
41644;DHT22;44236;48.098;11.582;2023-06-22T14:02:06;26.50;59.00
41644;DHT22;44236;48.098;11.582;2023-06-22T14:04:31;26.50;59.00
41644;DHT22;44236;48.098;11.582;2023-06-22T14:06:57;26.40;58.90
41644;DHT22;44236;48.098;11.582;2023-06-22T14:09:23;26.40;59.00
41644;DHT22;44236;48.098;11.582;2023-06-22T14:11:48;26.50;59.10
41644;DHT22;44236;48.098;11.582;2023-06-22T14:14:14;26.50;59.10
41644;DHT22;44236;48.098;11.582;2023-06-22T14:16:39;26.50;59.10
41644;DHT22;44236;48.098;11.582;2023-06-22T14:19:05;26.50;59.10
41644;DHT22;44236;48.098;11.582;2023-06-22T14:21:31;26.50;59.10
41644;DHT22;44236;48.098;11.582;2023-06-22T14:23:56;26.50;59.10
41644;DHT22;44236;48.098;11.582;2023-06-22T14:26:22;26.50;59.00
41644;DHT22;44236;48.098;11.582;2023-06-22T14:28:48;26.50;59.10
41644;DHT22;44236;48.098;11.582;2023-06-22T14:31:16;26.50;59.10
41644;DHT22;44236;48.098;11.582;2023-06-22T14:33:46;26.50;59.20
41644;DHT22;44236;48.098;11.582;2023-06-22T14:36:13;26.50;59.10
41644;DHT22;44236;48.098;11.582;2023-06-22T14:38:39;26.50;59.10
41644;DHT22;44236;48.098;11.582;2023-06-22T14:41:05;26.50;59.10
41644;DHT22;44236;48.098;11.582;2023-06-22T14:43:30;26.50;59.20
41644;DHT22;44236;48.098;11.582;2023-06-22T14:45:56;26.60;59.20
41644;DHT22;44236;48.098;11.582;2023-06-22T14:48:22;26.60;59.20
41644;DHT22;44236;48.098;11.582;2023-06-22T14:50:48;26.60;59.20
41644;DHT22;44236;48.098;11.582;2023-06-22T14:53:13;26.50;59.20
41644;DHT22;44236;48.098;11.582;2023-06-22T14:55:40;26.60;59.30
41644;DHT22;44236;48.098;11.582;2023-06-22T14:58:06;26.60;59.40
41644;DHT22;44236;48.098;11.582;2023-06-22T15:00:31;26.60;59.40
41644;DHT22;44236;48.098;11.582;2023-06-22T15:02:57;26.60;59.40
41644;DHT22;44236;48.098;11.582;2023-06-22T15:05:24;26.70;59.60
41644;DHT22;44236;48.098;11.582;2023-06-22T15:07:50;26.70;59.60
41644;DHT22;44236;48.098;11.582;2023-06-22T15:10:16;26.60;59.40
41644;DHT22;44236;48.098;11.582;2023-06-22T15:12:42;26.70;59.50
41644;DHT22;44236;48.098;11.582;2023-06-22T15:15:08;26.70;59.50
41644;DHT22;44236;48.098;11.582;2023-06-22T15:17:33;26.70;59.50